Time;durP1;ratioP1;P1;durP2;ratioP2;P2;SDS_P1;SDS_P2;PMS_P1;PMS_P2;Temp;Humidity;BMP_temperature;BMP_pressure;BME280_temperature;BME280_humidity;BME280_pressure;Samples;Min_cycle;Max_cycle;Signal;HPM_P1;HPM_P2
2022/11/28 00:00:32;;;;;;;4.43;2.92;;;;;;;10.29;51.26;99872.94;5135359;27;20062;-62
2022/11/28 00:02:59;;;;;;;5.20;3.78;;;;;;;10.28;51.65;99861.00;5134896;27;20058;-63
2022/11/28 00:05:26;;;;;;;4.20;3.22;;;;;;;10.29;51.65;99864.59;5139820;27;20050;-63
2022/11/28 00:07:55;;;;;;;4.28;2.83;;;;;;;10.31;51.57;99870.69;5155912;27;20054;-64
2022/11/28 00:10:22;;;;;;;3.55;2.95;;;;;;;10.35;50.96;99871.66;5154929;27;20070;-63
2022/11/28 00:12:50;;;;;;;4.55;3.03;;;;;;;10.41;51.46;99848.06;5155898;27;20050;-63
2022/11/28 00:15:17;;;;;;;3.53;2.88;;;;;;;10.37;51.58;99835.97;5155546;27;20051;-63
2022/11/28 00:17:44;;;;;;;5.97;3.50;;;;;;;10.34;50.96;99831.88;5155863;27;20399;-63
2022/11/28 00:20:12;;;;;;;4.25;3.42;;;;;;;10.51;51.27;99858.88;5150817;27;20050;-62
2022/11/28 00:22:39;;;;;;;4.38;3.03;;;;;;;10.39;50.87;99836.44;5149718;27;20470;-62
2022/11/28 00:25:08;;;;;;;4.68;3.22;;;;;;;10.39;50.99;99833.66;5155385;27;20433;-62
2022/11/28 00:27:39;;;;;;;4.35;3.25;;;;;;;10.43;51.67;99829.06;5155135;27;20050;-63
2022/11/28 00:30:07;;;;;;;5.18;3.60;;;;;;;10.35;53.51;99825.19;5154783;27;20391;-62
2022/11/28 00:32:35;;;;;;;5.05;3.80;;;;;;;10.06;55.22;99820.25;5155354;27;20478;-63
2022/11/28 00:35:02;;;;;;;4.72;3.53;;;;;;;10.08;55.35;99833.81;5155013;27;20050;-61
2022/11/28 00:37:29;;;;;;;4.22;3.28;;;;;;;9.99;56.88;99817.09;5151089;27;20050;-63
2022/11/28 00:39:56;;;;;;;7.03;4.20;;;;;;;9.53;62.62;99812.97;5133438;27;20062;-62
2022/11/28 00:42:25;;;;;;;7.57;4.40;;;;;;;9.26;64.98;99820.44;5134282;27;20047;-63
2022/11/28 00:44:52;;;;;;;6.10;4.05;;;;;;;9.06;67.14;99812.66;5134158;27;20050;-62
2022/11/28 00:47:19;;;;;;;6.50;4.43;;;;;;;8.93;66.40;99826.31;5134364;27;20054;-63
2022/11/28 00:49:47;;;;;;;5.97;4.22;;;;;;;8.88;67.79;99814.53;5124900;27;20399;-62
2022/11/28 00:52:14;;;;;;;6.78;4.30;;;;;;;8.76;69.13;99817.06;5137902;27;20051;-62
2022/11/28 00:54:41;;;;;;;7.45;4.90;;;;;;;8.67;71.20;99804.00;5154680;27;20053;-62
2022/11/28 00:57:08;;;;;;;7.05;4.38;;;;;;;8.61;71.51;99818.28;5137449;27;20063;-62
2022/11/28 00:59:37;;;;;;;6.50;4.90;;;;;;;8.62;72.55;99806.88;5125417;27;20061;-63
2022/11/28 01:02:05;;;;;;;4.53;3.90;;;;;;;8.61;70.69;99813.59;5133777;27;20069;-63
2022/11/28 01:04:35;;;;;;;7.97;4.82;;;;;;;8.62;72.08;99800.53;5133667;27;20047;-63
2022/11/28 01:07:06;;;;;;;5.55;3.80;;;;;;;8.72;71.90;99794.69;5148316;27;20058;-63
2022/11/28 01:09:33;;;;;;;6.28;4.13;;;;;;;8.52;72.98;99804.38;5154531;27;20074;-63
2022/11/28 01:12:01;;;;;;;5.53;4.35;;;;;;;8.58;73.02;99805.88;5154653;27;20077;-63
2022/11/28 01:14:35;;;;;;;6.60;4.68;;;;;;;8.65;71.19;99800.72;5154197;27;20050;-63
2022/11/28 01:17:03;;;;;;;5.65;4.10;;;;;;;8.73;71.72;99796.31;5154528;27;20058;-63
2022/11/28 01:19:31;;;;;;;7.00;3.92;;;;;;;8.72;71.57;99800.25;5154525;27;20047;-63
2022/11/28 01:21:58;;;;;;;5.50;3.90;;;;;;;8.78;70.64;99798.97;5148049;27;20047;-64
2022/11/28 01:24:25;;;;;;;4.85;4.18;;;;;;;8.77;72.09;99802.88;5123250;27;20052;-63
2022/11/28 01:26:52;;;;;;;4.97;3.65;;;;;;;8.86;70.34;99791.81;5112689;28;20056;-63
2022/11/28 01:29:20;;;;;;;5.88;3.85;;;;;;;8.77;70.52;99785.41;5112462;28;20065;-63
2022/11/28 01:31:47;;;;;;;6.10;3.65;;;;;;;8.84;70.49;99780.19;5112628;28;20059;-63
2022/11/28 01:34:16;;;;;;;7.80;4.53;;;;;;;8.97;70.23;99784.84;5113129;27;20078;-63
2022/11/28 01:36:44;;;;;;;4.75;3.88;;;;;;;9.05;69.69;99780.44;5151709;27;20057;-63
2022/11/28 01:39:14;;;;;;;6.28;3.78;;;;;;;8.90;67.94;99790.03;5119341;27;20046;-63
2022/11/28 01:41:41;;;;;;;6.63;4.03;;;;;;;8.96;68.92;99785.97;5133519;27;20047;-63
2022/11/28 01:44:42;;;;;;;5.50;3.97;;;;;;;8.91;69.67;99783.34;5133071;27;20498;-63
2022/11/28 01:47:09;;;;;;;5.60;3.65;;;;;;;9.02;70.59;99781.91;5132915;27;20051;-63
2022/11/28 01:49:38;;;;;;;8.43;5.03;;;;;;;8.88;71.31;99779.25;5122425;27;20051;-64
2022/11/28 01:52:11;;;;;;;5.53;4.35;;;;;;;8.74;70.96;99787.69;5147234;27;20043;-63
2022/11/28 01:54:41;;;;;;;6.78;4.22;;;;;;;8.79;70.49;99780.34;5133159;27;20058;-63
2022/11/28 01:57:13;;;;;;;7.68;4.72;;;;;;;8.98;71.52;99780.91;5133389;27;20051;-63
2022/11/28 01:59:43;;;;;;;5.55;4.40;;;;;;;8.95;71.11;99770.47;5131373;27;20058;-63
2022/11/28 02:02:16;;;;;;;7.05;4.72;;;;;;;9.02;70.91;99770.81;5112908;28;20048;-63
2022/11/28 02:04:46;;;;;;;5.88;4.70;;;;;;;9.12;71.55;99769.69;5138021;27;20046;-63
2022/11/28 02:07:14;;;;;;;7.13;4.43;;;;;;;9.26;71.88;99769.56;5153720;27;20050;-63
2022/11/28 02:09:41;;;;;;;5.95;4.53;;;;;;;9.22;70.37;99779.69;5153807;27;20390;-63
2022/11/28 02:12:23;;;;;;;5.57;4.05;;;;;;;9.18;69.56;99762.84;5151392;27;20475;-63
2022/11/28 02:15:04;;;;;;;5.72;4.35;;;;;;;9.31;69.41;99766.66;5126624;28;20047;-63
2022/11/28 02:17:43;;;;;;;5.85;4.22;;;;;;;9.30;68.63;99765.84;5112208;28;20051;-63
2022/11/28 02:20:39;;;;;;;4.35;3.45;;;;;;;9.21;67.55;99753.88;5148360;27;20049;-64
2022/11/28 02:23:16;;;;;;;6.75;4.30;;;;;;;9.25;68.79;99757.63;5115106;27;20062;-63
2022/11/28 02:26:21;;;;;;;6.35;4.60;;;;;;;9.31;68.60;99752.75;5133474;28;20085;-63
2022/11/28 02:29:15;;;;;;;7.10;4.57;;;;;;;9.46;68.17;99743.94;5132071;28;20051;-63
2022/11/28 02:32:09;;;;;;;7.85;5.03;;;;;;;9.40;70.80;99747.22;5134769;27;20046;-63
2022/11/28 02:34:45;;;;;;;6.43;4.93;;;;;;;9.42;68.95;99739.38;5156535;27;20050;-63
2022/11/28 02:37:20;;;;;;;7.03;4.65;;;;;;;9.53;67.87;99740.69;5157238;27;20057;-63
2022/11/28 02:39:56;;;;;;;5.75;4.38;;;;;;;9.55;67.51;99733.66;5145581;27;20065;-63
2022/11/28 02:42:28;;;;;;;5.28;4.13;;;;;;;9.48;66.21;99727.75;5139884;27;20050;-63
2022/11/28 02:45:00;;;;;;;6.00;4.22;;;;;;;9.51;67.11;99729.06;5157533;27;20054;-63
2022/11/28 02:47:33;;;;;;;5.40;4.00;;;;;;;9.57;66.79;99719.41;5152592;27;20058;-62
2022/11/28 02:50:07;;;;;;;6.30;3.78;;;;;;;9.53;65.80;99722.06;5140383;27;20051;-63
2022/11/28 02:52:39;;;;;;;5.03;4.50;;;;;;;9.54;67.68;99706.19;5157088;27;20054;-62
2022/11/28 02:55:08;;;;;;;6.10;4.38;;;;;;;9.57;68.94;99713.06;5157327;27;20047;-63
2022/11/28 02:57:37;;;;;;;5.68;4.35;;;;;;;9.63;68.36;99728.44;5156912;27;20058;-63
2022/11/28 03:00:24;;;;;;;5.95;4.78;;;;;;;9.69;70.00;99725.16;5157087;27;20054;-63
2022/11/28 03:03:06;;;;;;;5.32;4.35;;;;;;;9.79;70.33;99699.00;5154614;27;20042;-63
2022/11/28 03:05:42;;;;;;;5.93;4.65;;;;;;;9.83;70.26;99701.94;5153065;27;20399;-63
2022/11/28 03:08:25;;;;;;;6.13;4.45;;;;;;;9.88;70.14;99694.22;5136763;27;20055;-63
2022/11/28 03:10:58;;;;;;;7.85;4.90;;;;;;;9.91;68.32;99703.88;5136547;27;20395;-63
2022/11/28 03:13:31;;;;;;;5.55;4.70;;;;;;;9.97;68.97;99702.56;5135918;27;20054;-63
2022/11/28 03:16:14;;;;;;;5.32;4.32;;;;;;;9.88;65.98;99698.97;5136397;27;20062;-63
2022/11/28 03:18:50;;;;;;;6.20;4.53;;;;;;;9.80;65.33;99699.78;5156786;27;20046;-63
2022/11/28 03:21:25;;;;;;;5.53;4.38;;;;;;;9.52;63.64;99709.28;5156370;27;20057;-63
2022/11/28 03:23:59;;;;;;;7.57;4.68;;;;;;;9.63;65.25;99712.56;5156635;27;20047;-62
2022/11/28 03:26:35;;;;;;;6.20;4.95;;;;;;;9.33;64.46;99704.03;5156111;27;20128;-62
2022/11/28 03:29:09;;;;;;;5.85;4.70;;;;;;;9.39;63.73;99696.38;5156740;27;20051;-63
2022/11/28 03:31:42;;;;;;;6.25;4.78;;;;;;;9.49;64.34;99701.63;5151583;27;20057;-63
2022/11/28 03:34:15;;;;;;;7.10;4.80;;;;;;;9.42;64.61;99700.44;5156342;27;20410;-63
2022/11/28 03:36:47;;;;;;;7.40;5.15;;;;;;;9.46;65.04;99695.88;5156813;27;20057;-63
2022/11/28 03:39:19;;;;;;;7.97;4.57;;;;;;;9.51;64.17;99690.13;5148961;27;20495;-63
2022/11/28 03:41:52;;;;;;;6.18;4.35;;;;;;;9.59;63.86;99685.75;5135489;27;20051;-62
2022/11/28 03:44:24;;;;;;;5.53;4.85;;;;;;;9.52;63.49;99692.59;5134696;27;20078;-63
2022/11/28 03:46:55;;;;;;;6.63;4.50;;;;;;;9.60;62.49;99698.50;5141998;27;20042;-64
2022/11/28 03:49:29;;;;;;;5.50;4.35;;;;;;;9.57;62.76;99704.72;5144044;27;20047;-63
2022/11/28 03:52:01;;;;;;;7.80;4.05;;;;;;;9.63;63.10;99700.63;5153479;27;20062;-62
2022/11/28 03:54:37;;;;;;;5.35;4.15;;;;;;;9.69;63.65;99697.34;5155917;27;20463;-62
2022/11/28 03:57:09;;;;;;;4.88;3.92;;;;;;;9.85;65.09;99696.84;5155783;27;20415;-62
2022/11/28 03:59:40;;;;;;;6.00;4.30;;;;;;;9.92;63.23;99688.81;5155559;27;20526;-63
2022/11/28 04:02:20;;;;;;;6.20;4.10;;;;;;;9.83;62.06;99690.81;5148607;27;20051;-62
2022/11/28 04:04:57;;;;;;;5.20;4.00;;;;;;;9.95;61.77;99700.13;5155865;27;20054;-62
2022/11/28 04:07:33;;;;;;;6.53;4.05;;;;;;;9.99;60.05;99697.47;5150914;27;20411;-63
2022/11/28 04:10:06;;;;;;;6.30;3.88;;;;;;;9.84;60.08;99695.22;5135482;27;20395;-64
2022/11/28 04:12:45;;;;;;;4.95;4.05;;;;;;;9.98;59.88;99695.03;5134326;27;20051;-63
2022/11/28 04:15:21;;;;;;;5.10;4.07;;;;;;;9.87;60.44;99711.22;5132132;27;20062;-63
2022/11/28 04:17:54;;;;;;;5.03;4.10;;;;;;;9.73;59.07;99711.41;5115386;27;20062;-63
2022/11/28 04:20:31;;;;;;;4.90;3.58;;;;;;;9.70;59.30;99709.28;5113888;28;20059;-64
2022/11/28 04:23:03;;;;;;;4.38;3.63;;;;;;;9.74;60.04;99713.88;5113910;28;20411;-63
2022/11/28 04:25:36;;;;;;;5.78;3.50;;;;;;;9.72;59.86;99699.50;5113907;28;20047;-63
2022/11/28 04:28:08;;;;;;;5.30;3.95;;;;;;;9.51;59.00;99699.31;5113779;28;20051;-63
2022/11/28 04:30:38;;;;;;;5.63;3.83;;;;;;;9.47;58.44;99678.88;5130600;27;20050;-63
2022/11/28 04:33:09;;;;;;;7.25;3.85;;;;;;;9.63;58.30;99676.41;5115657;27;20052;-63
2022/11/28 04:35:41;;;;;;;5.22;3.63;;;;;;;9.52;58.35;99678.69;5113771;28;20059;-63
2022/11/28 04:38:11;;;;;;;5.82;3.30;;;;;;;9.47;59.21;99675.25;5114102;28;20055;-63
2022/11/28 04:40:44;;;;;;;6.47;4.30;;;;;;;9.50;58.11;99666.28;5132433;27;20058;-62
2022/11/28 04:43:17;;;;;;;6.03;3.90;;;;;;;9.49;58.78;99676.59;5134457;27;20039;-63
2022/11/28 04:45:50;;;;;;;4.03;3.20;;;;;;;9.65;57.97;99676.91;5146719;27;20474;-62
2022/11/28 04:48:19;;;;;;;4.70;3.30;;;;;;;9.69;58.08;99689.00;5154638;27;20054;-62
2022/11/28 04:50:53;;;;;;;4.93;3.28;;;;;;;9.77;57.31;99684.59;5137579;27;20050;-63
2022/11/28 04:53:24;;;;;;;6.47;3.58;;;;;;;9.72;56.84;99691.16;5143765;27;20047;-62
2022/11/28 04:55:55;;;;;;;4.50;3.35;;;;;;;9.85;57.58;99697.69;5134470;27;20059;-62
2022/11/28 04:58:28;;;;;;;4.60;3.40;;;;;;;9.96;56.94;99681.47;5134056;27;20078;-62
2022/11/28 05:01:00;;;;;;;4.53;3.30;;;;;;;9.98;55.89;99683.91;5152417;27;20051;-62
2022/11/28 05:03:28;;;;;;;4.20;3.38;;;;;;;9.93;56.06;99682.94;5154106;27;20042;-62
2022/11/28 05:05:57;;;;;;;5.47;4.00;;;;;;;10.06;55.95;99683.09;5154598;27;20417;-62
2022/11/28 05:08:25;;;;;;;5.10;3.28;;;;;;;10.15;56.27;99681.09;5154054;27;20057;-62
2022/11/28 05:10:52;;;;;;;4.90;3.47;;;;;;;10.16;55.98;99686.34;5137267;27;20058;-62
2022/11/28 05:13:19;;;;;;;4.25;3.17;;;;;;;10.23;55.48;99679.44;5131796;27;20066;-62
2022/11/28 05:15:47;;;;;;;4.90;3.22;;;;;;;10.27;55.76;99683.19;5150624;27;20065;-62
2022/11/28 05:18:14;;;;;;;5.90;3.33;;;;;;;10.26;54.40;99673.22;5154027;27;20054;-62
2022/11/28 05:20:42;;;;;;;4.97;3.30;;;;;;;10.25;54.72;99661.25;5136914;27;20062;-62
2022/11/28 05:23:12;;;;;;;4.93;3.03;;;;;;;10.30;55.35;99657.50;5150193;27;20051;-62
2022/11/28 05:25:39;;;;;;;5.15;3.38;;;;;;;10.28;54.82;99662.56;5154220;27;20065;-62
2022/11/28 05:28:08;;;;;;;5.25;3.10;;;;;;;10.35;55.55;99686.00;5154128;27;20050;-62
2022/11/28 05:30:35;;;;;;;3.85;3.00;;;;;;;10.42;54.75;99687.44;5143286;27;20101;-62
2022/11/28 05:33:05;;;;;;;4.15;3.17;;;;;;;10.55;54.98;99703.91;5116170;27;20054;-62
2022/11/28 05:35:33;;;;;;;4.45;3.20;;;;;;;10.54;54.33;99698.69;5133146;27;20476;-62
2022/11/28 05:38:00;;;;;;;4.57;2.92;;;;;;;10.43;54.77;99689.06;5133101;27;20495;-62
2022/11/28 05:40:29;;;;;;;4.35;3.25;;;;;;;10.59;53.28;99697.69;5132905;27;20055;-63
2022/11/28 05:42:56;;;;;;;4.53;3.30;;;;;;;10.38;53.21;99686.47;5130204;27;20046;-62
2022/11/28 05:45:23;;;;;;;4.20;3.00;;;;;;;10.43;53.43;99691.84;5140883;27;20475;-62
2022/11/28 05:47:51;;;;;;;4.05;2.90;;;;;;;10.27;53.67;99674.84;5153711;27;20128;-62
2022/11/28 05:50:18;;;;;;;3.85;3.25;;;;;;;10.37;54.24;99680.06;5130332;27;20050;-62
2022/11/28 05:52:45;;;;;;;4.93;3.05;;;;;;;10.31;53.57;99678.59;5153398;27;20491;-62
2022/11/28 05:55:12;;;;;;;4.50;2.85;;;;;;;10.42;54.04;99674.34;5153605;27;20047;-62
2022/11/28 05:57:41;;;;;;;5.18;3.30;;;;;;;10.29;54.08;99683.66;5153220;27;20051;-62
2022/11/28 06:00:09;;;;;;;5.85;3.35;;;;;;;10.31;53.53;99676.66;5153626;27;20058;-62
2022/11/28 06:02:36;;;;;;;4.45;3.30;;;;;;;10.32;53.87;99675.50;5153553;27;20051;-62
2022/11/28 06:05:04;;;;;;;7.03;3.90;;;;;;;10.11;53.60;99674.56;5151753;27;20491;-62
2022/11/28 06:07:31;;;;;;;5.35;3.92;;;;;;;10.04;54.93;99677.84;5151936;27;20409;-62
2022/11/28 06:09:59;;;;;;;4.20;3.47;;;;;;;10.02;54.63;99682.13;5143769;27;20051;-62
2022/11/28 06:12:26;;;;;;;5.80;4.57;;;;;;;9.87;55.84;99700.94;5127439;27;20062;-62
2022/11/28 06:14:55;;;;;;;5.47;4.20;;;;;;;9.99;55.77;99700.25;5137310;27;20065;-62
2022/11/28 06:17:22;;;;;;;5.50;4.07;;;;;;;9.84;55.64;99692.44;5143950;27;20048;-62
2022/11/28 06:19:49;;;;;;;6.07;4.35;;;;;;;9.78;56.74;99691.78;5133025;27;20055;-62
2022/11/28 06:22:17;;;;;;;6.57;4.40;;;;;;;9.89;56.82;99693.09;5132331;28;20411;-62
2022/11/28 06:24:44;;;;;;;6.25;4.50;;;;;;;9.72;57.64;99690.31;5111513;28;20063;-62
2022/11/28 06:27:11;;;;;;;5.68;4.45;;;;;;;9.71;57.81;99677.56;5118219;28;20058;-62
2022/11/28 06:29:38;;;;;;;5.55;4.30;;;;;;;9.79;57.00;99675.94;5131192;27;20062;-62
2022/11/28 06:32:07;;;;;;;5.10;3.85;;;;;;;9.88;56.43;99674.75;5120145;27;20051;-62
2022/11/28 06:34:34;;;;;;;5.18;4.43;;;;;;;9.99;56.88;99679.97;5153037;27;20047;-62
2022/11/28 06:37:02;;;;;;;6.93;3.97;;;;;;;9.87;57.26;99687.03;5137106;27;20380;-62
2022/11/28 06:39:29;;;;;;;6.10;3.92;;;;;;;9.89;57.11;99673.63;5127037;28;20047;-61
2022/11/28 06:41:56;;;;;;;5.10;3.58;;;;;;;10.03;57.05;99669.81;5112601;28;20062;-62
2022/11/28 06:44:24;;;;;;;5.45;3.70;;;;;;;10.03;56.52;99684.53;5130663;28;20431;-62
2022/11/28 06:46:53;;;;;;;6.65;4.30;;;;;;;10.11;56.75;99672.59;5123750;27;20441;-62
2022/11/28 06:49:21;;;;;;;5.80;3.45;;;;;;;10.13;56.89;99675.03;5127873;27;20396;-61
2022/11/28 06:51:49;;;;;;;5.32;3.63;;;;;;;10.18;56.70;99683.19;5111195;28;20052;-62
2022/11/28 06:54:16;;;;;;;4.82;3.80;;;;;;;10.11;56.14;99678.16;5094781;28;20400;-62
2022/11/28 06:56:43;;;;;;;5.07;3.70;;;;;;;10.04;57.02;99688.97;5110376;28;20052;-62
2022/11/28 06:59:11;;;;;;;5.35;4.07;;;;;;;9.98;56.17;99681.13;5098168;28;20052;-62
2022/11/28 07:01:39;;;;;;;5.82;3.85;;;;;;;10.05;56.59;99690.59;5100145;28;20061;-62
2022/11/28 07:04:06;;;;;;;5.07;3.90;;;;;;;10.08;56.75;99678.81;5112087;28;20502;-62
2022/11/28 07:06:35;;;;;;;6.25;4.32;;;;;;;10.03;56.18;99687.31;5127582;28;20051;-62
2022/11/28 07:09:02;;;;;;;6.50;4.25;;;;;;;9.94;56.57;99690.13;5121253;28;20055;-61
2022/11/28 07:11:32;;;;;;;6.65;3.78;;;;;;;10.02;55.83;99693.25;5131200;28;20399;-62
2022/11/28 07:14:01;;;;;;;5.88;3.85;;;;;;;9.95;55.07;99696.50;5126904;27;20047;-62
2022/11/28 07:16:30;;;;;;;;;;;;;;;9.86;55.97;99682.59;5124358;28;20133;-62
2022/11/28 07:18:58;;;;;;;5.85;4.03;;;;;;;9.90;55.28;99696.69;5132432;27;19926;-62
2022/11/28 07:21:26;;;;;;;5.13;3.88;;;;;;;9.88;55.82;99691.44;5134716;27;20058;-62
2022/11/28 07:23:54;;;;;;;6.82;4.63;;;;;;;9.84;55.08;99686.88;5135989;27;20058;-62
2022/11/28 07:26:22;;;;;;;5.07;4.03;;;;;;;9.87;54.50;99689.81;5133592;27;20058;-62
2022/11/28 07:28:50;;;;;;;7.13;4.82;;;;;;;9.86;55.41;99690.94;5153700;27;20051;-62
2022/11/28 07:31:20;;;;;;;5.82;4.15;;;;;;;9.83;55.78;99688.84;5151669;27;20050;-61
2022/11/28 07:33:50;;;;;;;6.30;3.97;;;;;;;9.93;54.75;99707.13;5146465;27;20467;-61
2022/11/28 07:36:18;;;;;;;;;;;;;;;9.87;54.99;99708.44;5156988;27;20051;-61
2022/11/28 07:38:46;;;;;;;5.65;4.25;;;;;;;9.64;55.72;99727.28;5156249;27;20306;-61
2022/11/28 07:41:15;;;;;;;6.03;4.57;;;;;;;9.77;55.86;99729.09;5156333;27;20587;-61
2022/11/28 07:43:44;;;;;;;6.90;4.65;;;;;;;9.78;55.38;99727.13;5154516;27;20055;-62
2022/11/28 07:46:13;;;;;;;5.93;4.90;;;;;;;9.79;54.99;99726.81;5139573;27;20051;-61
2022/11/28 07:48:40;;;;;;;7.45;5.00;;;;;;;9.74;55.39;99725.00;5135768;27;20070;-61
2022/11/28 07:51:09;;;;;;;5.97;4.45;;;;;;;9.75;55.65;99731.38;5119310;27;20062;-62
2022/11/28 07:53:37;;;;;;;6.88;4.75;;;;;;;9.86;55.63;99721.53;5134797;27;20051;-61
2022/11/28 07:56:07;;;;;;;5.93;4.28;;;;;;;9.74;56.81;99724.16;5135155;27;20071;-47
2022/11/28 07:58:37;;;;;;;5.80;4.60;;;;;;;9.74;59.84;99725.00;5134089;27;20500;-47
2022/11/28 08:01:08;;;;;;;6.60;4.80;;;;;;;9.37;59.17;99726.44;5152378;27;20057;-48
2022/11/28 08:03:36;;;;;;;6.00;4.60;;;;;;;9.83;60.89;99725.00;5131565;27;20055;-45
2022/11/28 08:06:04;;;;;;;5.60;4.57;;;;;;;9.92;57.04;99720.25;5155844;27;20051;-59
2022/11/28 08:08:31;;;;;;;5.78;4.30;;;;;;;10.02;56.14;99730.22;5155497;27;20050;-59
2022/11/28 08:11:00;;;;;;;5.97;4.65;;;;;;;10.07;56.14;99732.81;5136441;27;20055;-60
2022/11/28 08:13:27;;;;;;;7.15;4.60;;;;;;;10.28;54.97;99721.81;5151218;27;20410;-59
2022/11/28 08:15:56;;;;;;;6.70;4.85;;;;;;;9.89;55.50;99729.25;5139268;27;20054;-60
2022/11/28 08:18:23;;;;;;;5.90;4.60;;;;;;;10.23;54.84;99730.34;5153284;27;20490;-59
2022/11/28 08:20:51;;;;;;;6.57;4.82;;;;;;;10.26;54.82;99721.34;5129785;27;20050;-60
2022/11/28 08:23:18;;;;;;;6.78;4.57;;;;;;;10.12;55.56;99723.47;5131839;27;20058;-60
2022/11/28 08:25:45;;;;;;;6.68;4.85;;;;;;;10.05;55.99;99732.34;5130006;27;20647;-59
2022/11/28 08:28:12;;;;;;;6.72;4.75;;;;;;;10.05;54.96;99729.56;5126083;27;20062;-59
2022/11/28 08:30:40;;;;;;;5.30;4.35;;;;;;;9.81;55.66;99718.94;5127966;27;20051;-60
2022/11/28 08:33:08;;;;;;;7.90;5.00;;;;;;;9.89;56.10;99726.47;5132928;27;20062;-60
2022/11/28 08:35:38;;;;;;;8.10;4.80;;;;;;;10.09;55.13;99718.59;5129199;27;20043;-60
2022/11/28 08:38:06;;;;;;;5.90;4.38;;;;;;;10.15;55.65;99720.88;5131487;27;20487;-60
2022/11/28 08:40:33;;;;;;;5.00;3.95;;;;;;;10.03;56.14;99729.06;5128733;27;20059;-60
2022/11/28 08:43:00;;;;;;;6.47;4.90;;;;;;;10.16;55.07;99730.88;5126814;27;20047;-60
2022/11/28 08:45:28;;;;;;;4.90;4.20;;;;;;;10.08;56.53;99720.56;5128610;27;20047;-61
2022/11/28 08:47:55;;;;;;;5.50;4.47;;;;;;;10.34;56.00;99730.84;5143029;27;20046;-60
2022/11/28 08:50:24;;;;;;;5.57;4.68;;;;;;;10.47;54.94;99734.59;5137778;27;20057;-59
2022/11/28 08:52:51;;;;;;;6.82;5.03;;;;;;;10.18;55.74;99732.47;5150931;27;20406;-60
2022/11/28 08:55:18;;;;;;;5.35;4.50;;;;;;;10.28;55.61;99734.94;5153357;27;20058;-61
2022/11/28 08:57:46;;;;;;;5.10;4.40;;;;;;;10.51;55.53;99730.78;5149982;27;20054;-60
2022/11/28 09:00:14;;;;;;;6.25;4.55;;;;;;;10.45;55.47;99734.91;5154873;27;20057;-60
2022/11/28 09:02:42;;;;;;;5.80;4.53;;;;;;;10.50;56.23;99743.09;5124753;27;20044;-60
2022/11/28 09:05:09;;;;;;;5.82;4.20;;;;;;;10.47;55.71;99731.78;5154738;27;20500;-61
2022/11/28 09:07:38;;;;;;;5.82;4.43;;;;;;;10.55;55.17;99731.75;5152417;27;20062;-60
2022/11/28 09:10:06;;;;;;;5.80;4.80;;;;;;;10.52;55.44;99735.22;5135283;27;20059;-61
2022/11/28 09:12:34;;;;;;;6.75;4.47;;;;;;;10.62;55.16;99741.56;5122456;27;20505;-60
2022/11/28 09:15:01;;;;;;;5.55;4.30;;;;;;;10.59;55.65;99742.25;5133545;27;20055;-59
2022/11/28 09:17:28;;;;;;;8.05;4.75;;;;;;;10.55;55.98;99740.13;5117995;27;20043;-60
2022/11/28 09:19:55;;;;;;;5.93;4.35;;;;;;;10.63;55.69;99732.09;5129948;27;20051;-60
2022/11/28 09:22:23;;;;;;;5.95;4.63;;;;;;;10.65;55.75;99730.59;5140725;27;20057;-59
2022/11/28 09:24:51;;;;;;;6.25;4.43;;;;;;;10.64;56.00;99737.31;5143815;27;20054;-60
2022/11/28 09:27:18;;;;;;;5.50;4.50;;;;;;;10.67;55.77;99738.63;5136354;27;20058;-60
2022/11/28 09:29:46;;;;;;;5.55;4.05;;;;;;;10.69;55.58;99739.91;5133812;27;20047;-59
2022/11/28 09:32:13;;;;;;;7.32;4.50;;;;;;;10.51;55.75;99739.16;5122256;27;20066;-60
2022/11/28 09:34:40;;;;;;;7.82;5.00;;;;;;;10.07;57.06;99743.13;5119519;27;20511;-60
2022/11/28 09:37:08;;;;;;;5.82;4.55;;;;;;;10.41;57.42;99736.72;5112965;27;20052;-60
2022/11/28 09:39:35;;;;;;;6.43;4.57;;;;;;;10.64;56.02;99744.84;5118859;27;20043;-60
2022/11/28 09:42:13;;;;;;;6.05;4.60;;;;;;;10.62;56.58;99747.16;5120999;27;20062;-59
2022/11/28 09:44:45;;;;;;;5.55;4.50;;;;;;;10.33;57.53;99740.34;5137859;27;20050;-60
2022/11/28 09:47:18;;;;;;;6.22;4.82;;;;;;;10.42;56.95;99755.06;5153384;27;20042;-60
2022/11/28 09:49:50;;;;;;;6.57;4.65;;;;;;;10.28;57.03;99749.66;5102013;27;20071;-60
2022/11/28 09:52:26;;;;;;;6.03;4.65;;;;;;;10.55;57.46;99754.03;5122371;27;20055;-60
2022/11/28 09:55:03;;;;;;;8.05;4.82;;;;;;;10.50;57.41;99745.06;5132478;27;20055;-60
2022/11/28 09:57:39;;;;;;;7.05;4.75;;;;;;;10.31;58.32;99742.63;5124088;27;20062;-60
2022/11/28 10:00:11;;;;;;;5.75;4.82;;;;;;;10.34;57.85;99744.78;5119605;27;20063;-60
2022/11/28 10:02:45;;;;;;;6.07;4.60;;;;;;;10.43;58.07;99748.34;5122842;27;20047;-60
2022/11/28 10:05:23;;;;;;;7.10;5.20;;;;;;;10.39;58.44;99743.78;5130144;27;21683;-60
2022/11/28 10:08:02;;;;;;;6.00;5.00;;;;;;;10.39;58.45;99747.38;5121338;28;20491;-60
2022/11/28 10:10:38;;;;;;;7.28;4.93;;;;;;;10.40;57.98;99751.81;5133425;27;20059;-60
2022/11/28 10:13:16;;;;;;;6.28;4.93;;;;;;;10.52;58.51;99749.16;5123082;28;20164;-59
2022/11/28 10:15:54;;;;;;;8.63;5.10;;;;;;;10.55;57.79;99751.25;5111670;28;20057;-60
2022/11/28 10:18:33;;;;;;;6.25;4.53;;;;;;;10.55;58.32;99751.25;5133011;28;20051;-59
2022/11/28 10:21:04;;;;;;;7.85;4.88;;;;;;;10.73;57.66;99754.81;5129060;27;20059;-61
2022/11/28 10:23:38;;;;;;;7.57;5.43;;;;;;;10.92;57.17;99743.28;5126198;28;20100;-61
2022/11/28 10:26:08;;;;;;;6.70;4.93;;;;;;;10.77;57.77;99738.22;5112080;27;20043;-60
2022/11/28 10:28:41;;;;;;;7.07;4.85;;;;;;;10.97;57.89;99743.06;5130116;27;20051;-61
2022/11/28 10:31:15;;;;;;;6.90;4.80;;;;;;;10.77;57.97;99754.94;5115289;28;20056;-60
2022/11/28 10:33:48;;;;;;;6.47;5.38;;;;;;;10.74;58.34;99752.84;5122179;28;20055;-61
2022/11/28 10:36:23;;;;;;;6.15;4.85;;;;;;;10.60;58.68;99755.00;5129991;27;20051;-60
2022/11/28 10:38:52;;;;;;;7.55;4.82;;;;;;;10.66;59.09;99751.72;5114023;28;20043;-60
2022/11/28 10:41:30;;;;;;;7.20;4.70;;;;;;;10.84;58.76;99755.28;5120889;28;20415;-60
2022/11/28 10:44:05;;;;;;;7.43;4.70;;;;;;;10.77;59.27;99755.78;5121453;27;20617;-62
2022/11/28 10:46:46;;;;;;;7.22;5.32;;;;;;;10.53;60.11;99748.00;5100631;28;20052;-60
2022/11/28 10:49:27;;;;;;;6.93;5.32;;;;;;;10.71;61.04;99754.34;5094793;28;20055;-61
2022/11/28 10:52:03;;;;;;;9.18;6.05;;;;;;;10.77;60.34;99749.38;5104428;28;20125;-61
2022/11/28 10:54:48;;;;;;;6.20;5.13;;;;;;;10.72;60.53;99750.38;5109724;27;20051;-61
2022/11/28 10:57:21;;;;;;;8.10;4.95;;;;;;;10.71;61.14;99750.75;5107505;28;20055;-61
2022/11/28 11:00:01;;;;;;;7.60;5.45;;;;;;;10.69;60.70;99748.28;5119570;27;20513;-61
2022/11/28 11:02:39;;;;;;;8.35;5.30;;;;;;;10.55;61.02;99751.25;5112057;28;20051;-61
2022/11/28 11:05:13;;;;;;;6.88;5.70;;;;;;;10.29;62.64;99750.47;5112616;28;20052;-60
2022/11/28 11:07:46;;;;;;;8.38;5.40;;;;;;;10.35;61.68;99746.38;5114404;27;20051;-60
2022/11/28 11:10:16;;;;;;;8.55;5.85;;;;;;;10.29;62.70;99748.56;5113555;27;20047;-61
2022/11/28 11:12:44;;;;;;;7.07;5.75;;;;;;;10.23;62.66;99747.06;5113595;27;20054;-63
2022/11/28 11:15:23;;;;;;;7.15;5.78;;;;;;;10.49;62.54;99755.38;5095989;28;20067;-61
2022/11/28 11:17:50;;;;;;;8.80;6.10;;;;;;;10.22;62.91;99752.94;5105092;28;20039;-61
2022/11/28 11:20:37;;;;;;;8.57;5.85;;;;;;;10.15;63.54;99757.03;5107725;28;20055;-61
2022/11/28 11:23:13;;;;;;;9.23;5.93;;;;;;;9.97;63.64;99747.06;5105000;27;20060;-61
2022/11/28 11:25:51;;;;;;;9.10;5.82;;;;;;;10.19;62.97;99750.84;5123812;27;20051;-61
2022/11/28 11:28:49;;;;;;;8.13;5.60;;;;;;;10.40;63.07;99746.22;5121584;27;20048;-61
2022/11/28 11:31:24;;;;;;;6.95;6.03;;;;;;;10.19;63.82;99754.44;5118564;27;20054;-61
2022/11/28 11:33:53;;;;;;;8.45;5.57;;;;;;;10.36;63.06;99748.03;5114322;27;20055;-61
2022/11/28 11:36:24;;;;;;;8.32;5.38;;;;;;;10.51;62.83;99747.50;5114808;28;20054;-61
2022/11/28 11:38:58;;;;;;;7.75;5.45;;;;;;;10.50;62.82;99737.53;5114019;28;20055;-60
2022/11/28 11:41:30;;;;;;;7.93;5.75;;;;;;;10.86;61.95;99739.03;5108866;27;20079;-61
2022/11/28 11:44:23;;;;;;;7.53;5.35;;;;;;;11.01;61.80;99743.22;5116015;27;20062;-61
2022/11/28 11:46:54;;;;;;;7.50;5.40;;;;;;;10.69;62.35;99753.03;5132279;27;20060;-60
2022/11/28 11:49:29;;;;;;;9.88;5.82;;;;;;;10.75;61.49;99746.94;5123731;27;20044;-62
2022/11/28 11:51:57;;;;;;;8.10;5.57;;;;;;;10.95;61.63;99753.72;5124601;27;20383;-60
2022/11/28 11:54:24;;;;;;;8.40;5.57;;;;;;;10.73;62.01;99748.41;5109981;28;20055;-62
2022/11/28 11:56:51;;;;;;;7.53;5.50;;;;;;;10.63;62.64;99746.00;5134552;27;20054;-61